< Cyclone 197118 1971 Season Cyclone 197120 >
Cyclone 197119 (LENA)
General InformationTrack Information on Google Maps || ResourceGoogle EarthGE AnimationAtom FeedGeoJSON
Detalied Best Track (Time Zone = UTC)
Year Month Day Hour Lat. Long. Pressure (hPa) Wind (kt) Class Image Chart
1971 3 13 05 -12.3 154.8 995 0 0 -- --
1971 3 13 08 -13.0 155.3 994 0 0 -- --
1971 3 13 11 -13.5 155.8 994 0 0 -- --
1971 3 13 14 -14.1 156.1 992 0 0 -- --
1971 3 13 17 -14.5 156.4 992 0 0 -- --
1971 3 13 20 -15.1 156.7 992 0 0 -- --
1971 3 13 23 -15.7 156.8 994 0 0 -- --
1971 3 14 02 -16.3 156.8 992 0 0 -- --
1971 3 14 05 -16.9 156.8 990 0 0 -- --
1971 3 14 08 -17.5 156.8 990 0 0 -- --
1971 3 14 11 -18.1 156.7 992 0 0 -- --
1971 3 14 14 -18.6 156.4 990 0 0 -- --
1971 3 14 17 -19.1 156.2 987 0 0 -- --
1971 3 14 20 -19.6 155.8 985 0 0 -- --
1971 3 14 23 -20.0 155.4 983 0 0 -- --
1971 3 15 02 -20.4 155.1 983 0 0 -- --
1971 3 15 05 -20.8 154.8 980 0 0 -- --
1971 3 15 08 -21.3 154.6 980 0 0 -- --
1971 3 15 10 -21.4 154.4 980 0 0 -- --
1971 3 15 11 -21.6 154.4 980 0 0 -- --
1971 3 15 14 -21.9 154.2 980 0 0 -- --
1971 3 15 17 -22.2 154.1 980 0 0 -- --
1971 3 15 18 -22.3 154.1 981 0 0 -- --
1971 3 15 20 -22.5 154.2 984 0 0 -- --
1971 3 15 23 -22.8 154.2 985 0 0 -- --
1971 3 16 02 -23.2 154.3 987 0 0 -- --
1971 3 16 05 -23.6 154.5 988 0 0 -- --
1971 3 16 08 -23.8 154.8 988 0 0 -- --
1971 3 16 11 -23.9 155.0 990 0 0 -- --
1971 3 16 14 -23.8 155.1 991 0 0 -- --
1971 3 16 17 -23.7 155.2 991 0 0 -- --
1971 3 16 20 -23.6 155.3 991 0 0 -- --
1971 3 16 23 -23.5 155.4 992 0 0 -- --
1971 3 17 02 -23.3 155.6 992 0 0 -- --
1971 3 17 05 -23.1 155.8 992 0 0 -- --
1971 3 17 08 -23.0 156.1 992 0 0 -- --
1971 3 17 11 -22.8 156.3 992 0 0 -- --
1971 3 17 14 -22.6 156.6 992 0 0 -- --
1971 3 17 17 -22.5 157.0 992 0 0 -- --
1971 3 17 20 -22.3 157.4 992 0 0 -- --
1971 3 17 23 -22.1 157.9 992 0 0 -- --
1971 3 18 02 -21.9 158.4 992 0 0 -- --
1971 3 18 05 -21.7 158.9 992 0 0 -- --
1971 3 18 08 -21.6 159.4 992 0 0 -- --
1971 3 18 11 -21.4 159.9 992 0 0 -- --
1971 3 18 14 -21.3 160.4 992 0 0 -- --
1971 3 18 17 -21.3 160.8 992 0 0 -- --
1971 3 18 20 -21.4 161.2 993 0 0 -- --
1971 3 18 23 -21.5 161.6 994 0 0 -- --
1971 3 19 02 -21.5 162.0 995 0 0 -- --
1971 3 19 05 -21.6 162.5 996 0 0 -- --
1971 3 19 08 -21.7 163.0 997 0 0 -- --
1971 3 19 11 -22.0 163.6 998 0 0 -- --
1971 3 19 14 -22.2 164.4 998 0 0 -- --
1971 3 19 17 -22.8 165.4 998 0 0 -- --
1971 3 19 20 -23.3 166.6 998 0 0 -- --
1971 3 19 23 -23.9 167.8 1000 0 0 -- --
< Cyclone 197118 1971 Season Cyclone 197120 >

Help